Time;durP1;ratioP1;P1;durP2;ratioP2;P2;SDS_P1;SDS_P2;PMS_P1;PMS_P2;Temp;Humidity;BMP_temperature;BMP_pressure;BME280_temperature;BME280_humidity;BME280_pressure;Samples;Min_cycle;Max_cycle;Signal;HPM_P1;HPM_P2
2022/04/14 00:02:26;;;;;;;6.73;2.87;;;;;;;13.82;67.67;96608.03;5073654;28;20213;-56
2022/04/14 00:04:53;;;;;;;4.30;2.40;;;;;;;13.76;67.61;96603.38;5073536;28;20627;-57
2022/04/14 00:07:19;;;;;;;3.57;2.30;;;;;;;13.69;67.78;96602.34;5074584;28;20195;-56
2022/04/14 00:09:47;;;;;;;3.67;2.70;;;;;;;13.60;68.14;96602.50;5073827;28;20214;-56
2022/04/14 00:12:13;;;;;;;5.17;2.80;;;;;;;13.56;68.38;96607.31;5064401;28;20213;-57
2022/04/14 00:14:41;;;;;;;5.20;2.57;;;;;;;13.55;68.23;96610.97;5073669;28;20214;-57
2022/04/14 00:17:08;;;;;;;5.03;2.40;;;;;;;13.51;68.99;96603.47;5073747;28;20202;-57
2022/04/14 00:19:34;;;;;;;3.43;2.53;;;;;;;13.48;68.78;96604.63;5073336;28;20223;-57
2022/04/14 00:22:00;;;;;;;4.90;2.40;;;;;;;13.44;69.27;96608.59;5073310;28;20554;-56
2022/04/14 00:24:27;;;;;;;4.03;2.50;;;;;;;13.40;69.14;96604.59;5072274;28;20234;-57
2022/04/14 00:26:55;;;;;;;3.43;2.60;;;;;;;13.39;69.04;96600.31;5073860;28;20190;-56
2022/04/14 00:29:21;;;;;;;5.53;2.60;;;;;;;13.35;69.34;96601.63;5073377;28;20206;-55
2022/04/14 00:31:52;;;;;;;3.37;2.70;;;;;;;13.31;69.84;96608.22;5073348;28;20210;-56
2022/04/14 00:34:21;;;;;;;4.07;2.57;;;;;;;13.31;69.66;96603.75;5073176;28;20233;-56
2022/04/14 00:36:47;;;;;;;5.63;2.80;;;;;;;13.29;69.56;96600.41;5072648;28;20252;-56
2022/04/14 00:39:14;;;;;;;4.63;2.70;;;;;;;13.28;70.02;96603.25;5072733;28;20211;-56
2022/04/14 00:41:41;;;;;;;3.47;2.33;;;;;;;13.25;69.83;96603.56;5062946;28;20658;-57
2022/04/14 00:44:10;;;;;;;5.20;3.13;;;;;;;13.19;69.91;96605.03;5072174;28;20237;-56
2022/04/14 00:46:36;;;;;;;3.30;2.27;;;;;;;13.17;69.97;96600.88;5072843;28;20210;-57
2022/04/14 00:49:03;;;;;;;4.60;2.60;;;;;;;13.12;70.20;96605.81;5072590;28;20214;-57
2022/04/14 00:51:30;;;;;;;2.43;2.17;;;;;;;13.07;70.55;96606.28;5080691;28;20203;-57
2022/04/14 00:53:57;;;;;;;3.80;2.60;;;;;;;13.05;70.77;96602.94;5082698;28;20199;-56
2022/04/14 00:56:24;;;;;;;5.10;2.57;;;;;;;13.02;70.43;96608.56;5077364;28;20214;-57
2022/04/14 00:58:50;;;;;;;4.37;2.73;;;;;;;13.00;70.38;96602.59;5072390;28;20207;-55
2022/04/14 01:01:20;;;;;;;3.70;2.33;;;;;;;12.96;70.70;96610.06;5072345;28;20218;-56
2022/04/14 01:03:48;;;;;;;2.83;2.47;;;;;;;12.92;70.98;96614.00;5062751;28;20883;-56
2022/04/14 01:06:15;;;;;;;5.17;2.83;;;;;;;12.89;71.11;96616.97;5072548;28;20206;-57
2022/04/14 01:09:16;;;;;;;4.60;2.90;;;;;;;12.86;71.32;96624.41;5072214;28;20195;-56
2022/04/14 01:11:30;;;;;;;4.57;2.50;;;;;;;12.81;71.83;96616.94;5072161;28;20214;-57
2022/04/14 01:13:57;;;;;;;2.87;2.50;;;;;;;12.79;71.94;96615.41;5071914;28;20199;-55
2022/04/14 01:16:24;;;;;;;6.40;2.33;;;;;;;12.75;72.14;96614.88;5072227;28;20229;-57
2022/04/14 01:18:51;;;;;;;3.53;2.20;;;;;;;12.74;71.95;96612.41;5072012;28;20206;-57
2022/04/14 01:21:21;;;;;;;4.40;2.63;;;;;;;12.70;72.09;96630.47;5071736;28;20666;-56
2022/04/14 01:23:49;;;;;;;4.60;2.57;;;;;;;12.70;72.38;96635.78;5071348;28;20233;-57
2022/04/14 01:26:16;;;;;;;3.67;2.30;;;;;;;12.66;72.69;96637.06;5071456;28;20206;-56
2022/04/14 01:28:42;;;;;;;4.33;2.80;;;;;;;12.63;73.06;96637.38;5071761;28;20546;-57
2022/04/14 01:31:09;;;;;;;4.87;2.50;;;;;;;12.61;73.21;96642.00;5095549;28;20195;-58
2022/04/14 01:33:35;;;;;;;3.83;2.63;;;;;;;12.51;73.69;96641.25;5093736;28;20213;-59
2022/04/14 01:36:02;;;;;;;3.63;2.60;;;;;;;12.48;73.64;96626.50;5090732;28;20213;-55
2022/04/14 01:38:28;;;;;;;3.90;2.53;;;;;;;12.44;73.63;96638.41;5072711;28;20226;-57
2022/04/14 01:40:56;;;;;;;4.37;2.70;;;;;;;12.42;74.33;96642.22;5071945;28;20222;-56
2022/04/14 01:43:23;;;;;;;7.00;3.17;;;;;;;12.37;74.34;96640.00;5071273;28;20206;-56
2022/04/14 01:45:51;;;;;;;3.47;2.20;;;;;;;12.31;74.95;96632.69;5071152;28;20205;-56
2022/04/14 01:48:17;;;;;;;5.17;2.63;;;;;;;12.19;75.89;96638.34;5071747;28;20195;-57
2022/04/14 01:50:44;;;;;;;3.07;2.57;;;;;;;12.18;75.76;96649.97;5071146;28;20198;-57
2022/04/14 01:53:11;;;;;;;4.13;2.20;;;;;;;12.16;75.63;96654.56;5071660;28;20217;-56
2022/04/14 01:55:37;;;;;;;7.37;2.80;;;;;;;12.12;76.48;96655.84;5071539;28;20206;-56
2022/04/14 01:58:06;;;;;;;4.60;2.57;;;;;;;12.04;77.21;96658.44;5071455;28;20241;-57
2022/04/14 02:00:32;;;;;;;6.03;2.50;;;;;;;12.03;76.71;96659.44;5071078;28;20241;-56
2022/04/14 02:02:59;;;;;;;4.13;2.57;;;;;;;11.97;76.99;96653.72;5070894;28;20542;-56
2022/04/14 02:05:25;;;;;;;4.40;2.87;;;;;;;11.89;77.51;96658.97;5070501;28;20213;-57
2022/04/14 02:07:52;;;;;;;5.07;2.67;;;;;;;11.88;77.31;96664.41;5071679;28;20202;-56
2022/04/14 02:10:21;;;;;;;4.47;2.37;;;;;;;11.76;78.23;96658.50;5071130;28;20199;-56
2022/04/14 02:12:49;;;;;;;4.00;2.60;;;;;;;11.79;77.79;96660.88;5069848;28;20210;-56
2022/04/14 02:15:18;;;;;;;4.20;2.43;;;;;;;11.74;77.85;96662.28;5070853;28;20221;-56
2022/04/14 02:17:45;;;;;;;5.80;2.93;;;;;;;11.66;78.92;96663.00;5071257;28;20226;-57
2022/04/14 02:20:11;;;;;;;2.83;2.53;;;;;;;11.65;78.93;96660.50;5071162;28;20202;-56
2022/04/14 02:22:39;;;;;;;6.53;2.73;;;;;;;11.65;78.58;96666.66;5070201;28;20226;-57
2022/04/14 02:25:08;;;;;;;3.00;2.70;;;;;;;11.60;78.94;96674.19;5071011;28;20214;-56
2022/04/14 02:27:34;;;;;;;3.87;2.50;;;;;;;11.58;79.34;96670.88;5070812;28;20199;-56
2022/04/14 02:30:01;;;;;;;4.07;2.33;;;;;;;11.51;79.26;96672.44;5070903;28;20661;-57
2022/04/14 02:32:29;;;;;;;4.13;2.43;;;;;;;11.54;79.01;96666.00;5070832;28;20201;-57
2022/04/14 02:34:57;;;;;;;5.93;3.23;;;;;;;11.49;79.28;96677.03;5071777;28;20194;-56
2022/04/14 02:37:23;;;;;;;5.40;2.80;;;;;;;11.44;79.91;96671.38;5071965;28;20207;-57
2022/04/14 02:39:50;;;;;;;4.50;2.70;;;;;;;11.41;79.77;96674.28;5071670;28;20209;-57
2022/04/14 02:42:16;;;;;;;4.20;2.97;;;;;;;11.38;80.28;96667.47;5070214;28;20593;-55
2022/04/14 02:44:42;;;;;;;3.97;2.73;;;;;;;11.40;80.14;96675.28;5071556;28;20259;-56
2022/04/14 02:47:12;;;;;;;5.03;2.97;;;;;;;11.34;80.49;96671.41;5072007;28;20206;-59
2022/04/14 02:49:40;;;;;;;4.13;2.90;;;;;;;11.35;80.48;96672.25;5072107;28;20204;-56
2022/04/14 02:52:07;;;;;;;7.70;2.97;;;;;;;11.31;81.11;96676.16;5072750;28;20198;-57
2022/04/14 02:54:37;;;;;;;4.60;2.77;;;;;;;11.26;81.18;96679.25;5072553;28;20198;-57
2022/04/14 02:57:05;;;;;;;4.57;2.90;;;;;;;11.24;81.43;96675.06;5073010;28;20210;-56
2022/04/14 02:59:31;;;;;;;3.53;2.80;;;;;;;11.23;81.37;96678.72;5072065;28;20210;-57
2022/04/14 03:01:58;;;;;;;5.73;2.97;;;;;;;11.19;81.39;96678.19;5072114;28;20233;-55
2022/04/14 03:04:25;;;;;;;4.80;3.00;;;;;;;11.16;82.15;96677.63;5072534;28;20215;-59
2022/04/14 03:06:53;;;;;;;3.57;2.60;;;;;;;11.16;81.63;96685.56;5071740;28;20241;-56
2022/04/14 03:09:20;;;;;;;4.80;2.93;;;;;;;10.97;82.90;96684.66;5069861;28;20206;-56
2022/04/14 03:11:46;;;;;;;4.60;2.50;;;;;;;11.05;82.11;96696.34;5070493;28;20195;-57
2022/04/14 03:14:13;;;;;;;7.37;2.93;;;;;;;11.05;82.33;96691.03;5069870;28;20571;-57
2022/04/14 03:16:39;;;;;;;4.93;2.40;;;;;;;11.08;82.12;96696.88;5070714;28;20203;-57
2022/04/14 03:19:06;;;;;;;3.33;2.70;;;;;;;11.08;82.18;96701.34;5071277;28;20207;-57
2022/04/14 03:21:33;;;;;;;5.13;3.00;;;;;;;11.04;82.52;96695.50;5070649;28;20230;-56
2022/04/14 03:24:01;;;;;;;7.00;3.70;;;;;;;11.08;81.92;96690.75;5072059;28;20230;-57
2022/04/14 03:26:27;;;;;;;4.07;3.00;;;;;;;11.07;81.54;96694.38;5084848;28;20202;-56
2022/04/14 03:28:53;;;;;;;4.67;2.80;;;;;;;11.02;82.08;96697.44;5091277;28;20203;-56
2022/04/14 03:31:20;;;;;;;4.20;2.77;;;;;;;11.02;81.98;96696.63;5091590;28;20206;-56
2022/04/14 03:33:47;;;;;;;4.33;2.80;;;;;;;11.02;81.60;96699.28;5074367;28;20521;-57
2022/04/14 03:36:14;;;;;;;4.30;3.03;;;;;;;11.02;81.43;96702.72;5073906;28;20213;-57
2022/04/14 03:38:42;;;;;;;3.17;2.57;;;;;;;10.98;81.71;96704.84;5074467;28;20210;-56
2022/04/14 03:41:10;;;;;;;3.90;2.77;;;;;;;10.96;82.20;96706.81;5073433;28;20227;-57
2022/04/14 03:43:37;;;;;;;3.70;2.63;;;;;;;10.95;82.03;96702.47;5073340;28;20218;-55
2022/04/14 03:46:04;;;;;;;3.83;3.17;;;;;;;10.92;82.42;96704.56;5074125;28;20202;-55
2022/04/14 03:48:31;;;;;;;4.07;2.67;;;;;;;10.92;82.19;96707.22;5073604;28;20536;-56
2022/04/14 03:50:58;;;;;;;4.50;2.77;;;;;;;10.83;83.59;96706.28;5077448;28;20205;-57
2022/04/14 03:53:25;;;;;;;2.63;2.40;;;;;;;10.83;82.94;96702.81;5093588;28;21207;-58
2022/04/14 03:55:52;;;;;;;5.07;2.77;;;;;;;10.81;83.01;96705.59;5098032;28;20182;-57
2022/04/14 03:58:22;;;;;;;3.53;3.00;;;;;;;10.77;82.87;96714.78;5088038;28;20239;-55
2022/04/14 04:00:49;;;;;;;5.97;4.90;;;;;;;10.77;83.01;96713.97;5073478;28;20210;-56
2022/04/14 04:03:15;;;;;;;7.43;3.33;;;;;;;10.77;82.70;96712.13;5073983;28;20198;-57
2022/04/14 04:05:42;;;;;;;3.93;3.17;;;;;;;10.74;83.04;96720.34;5073772;28;20198;-55
2022/04/14 04:08:11;;;;;;;5.50;3.00;;;;;;;10.71;83.18;96720.66;5073315;28;20268;-55
2022/04/14 04:10:37;;;;;;;3.93;3.00;;;;;;;10.71;83.39;96714.50;5073011;28;20199;-56
2022/04/14 04:13:04;;;;;;;5.60;3.00;;;;;;;10.70;83.68;96712.88;5063356;28;20198;-57
2022/04/14 04:15:32;;;;;;;3.83;2.87;;;;;;;10.71;83.77;96712.72;5073235;28;20203;-57
2022/04/14 04:17:59;;;;;;;3.83;2.70;;;;;;;10.67;84.24;96719.25;5073558;28;20206;-56
2022/04/14 04:20:26;;;;;;;5.07;3.27;;;;;;;10.65;83.88;96715.94;5073398;28;20650;-55
2022/04/14 04:22:53;;;;;;;4.80;2.97;;;;;;;10.66;83.74;96722.91;5072741;28;20266;-57
2022/04/14 04:25:20;;;;;;;5.40;3.10;;;;;;;10.64;84.07;96732.75;5073336;28;20280;-55
2022/04/14 04:27:47;;;;;;;8.13;3.70;;;;;;;10.67;83.96;96724.53;5073198;28;20211;-56
2022/04/14 04:30:13;;;;;;;3.40;2.97;;;;;;;10.67;83.79;96736.94;5072884;28;20205;-57
2022/04/14 04:32:49;;;;;;;3.10;2.90;;;;;;;10.67;84.11;96729.84;5072921;28;20203;-57
2022/04/14 04:35:15;;;;;;;6.10;3.33;;;;;;;10.69;83.93;96743.75;5071890;28;20571;-56
2022/04/14 04:37:42;;;;;;;4.53;3.17;;;;;;;10.71;84.08;96736.50;5072744;28;20642;-56
2022/04/14 04:40:10;;;;;;;10.13;3.53;;;;;;;10.68;84.59;96744.72;5072877;28;20214;-56
2022/04/14 04:42:37;;;;;;;6.30;3.23;;;;;;;10.71;84.62;96744.44;5071563;28;20223;-56
2022/04/14 04:45:04;;;;;;;6.10;3.63;;;;;;;10.71;84.55;96736.50;5072933;28;20194;-56
2022/04/14 04:47:30;;;;;;;5.33;3.10;;;;;;;10.73;85.19;96739.88;5072823;28;20222;-56
2022/04/14 04:49:59;;;;;;;5.50;3.50;;;;;;;10.73;84.96;96739.88;5071367;28;20218;-55
2022/04/14 04:52:26;;;;;;;4.23;3.33;;;;;;;10.77;84.75;96745.72;5072626;28;20561;-56
2022/04/14 04:54:52;;;;;;;3.93;3.43;;;;;;;10.74;85.55;96741.50;5072742;28;20529;-56
2022/04/14 04:57:21;;;;;;;3.50;3.20;;;;;;;10.75;85.67;96743.19;5072752;28;20518;-54
2022/04/14 04:59:48;;;;;;;6.93;3.63;;;;;;;10.80;85.65;96740.97;5072563;28;20206;-55
2022/04/14 05:02:14;;;;;;;5.70;3.67;;;;;;;10.83;85.43;96748.63;5071276;28;20218;-56
2022/04/14 05:04:41;;;;;;;7.30;3.77;;;;;;;10.89;85.10;96750.69;5072595;28;20228;-55
2022/04/14 05:07:09;;;;;;;5.13;3.33;;;;;;;10.94;84.74;96748.47;5072099;28;20206;-56
2022/04/14 05:09:36;;;;;;;8.33;3.33;;;;;;;10.98;85.17;96749.81;5071612;28;20627;-55
2022/04/14 05:12:05;;;;;;;5.00;3.87;;;;;;;11.04;84.75;96760.81;5072188;28;20272;-57
2022/04/14 05:14:31;;;;;;;4.00;3.10;;;;;;;11.10;84.46;96763.72;5072154;28;20222;-56
2022/04/14 05:16:58;;;;;;;5.50;3.33;;;;;;;11.12;84.65;96767.09;5071478;28;20199;-57
2022/04/14 05:19:24;;;;;;;7.10;3.67;;;;;;;11.21;84.29;96775.97;5071669;28;20207;-57
2022/04/14 05:21:51;;;;;;;5.17;3.30;;;;;;;11.26;84.48;96769.28;5073873;28;20382;-57
2022/04/14 05:24:19;;;;;;;4.53;3.33;;;;;;;11.27;84.24;96767.44;5075779;28;20234;-57
2022/04/14 05:26:46;;;;;;;7.23;3.33;;;;;;;11.32;84.72;96778.44;5078131;28;20214;-56
2022/04/14 05:29:13;;;;;;;5.33;3.40;;;;;;;11.43;83.95;96781.75;5080324;28;20523;-56
2022/04/14 05:31:39;;;;;;;6.10;3.50;;;;;;;11.48;84.09;96773.34;5080515;28;20209;-57
2022/04/14 05:34:06;;;;;;;5.97;3.57;;;;;;;11.56;84.08;96778.75;5073200;28;20208;-56
2022/04/14 05:36:33;;;;;;;4.73;3.40;;;;;;;11.60;83.83;96769.53;5071917;28;20210;-57
2022/04/14 05:38:59;;;;;;;4.47;3.10;;;;;;;11.65;83.98;96767.31;5071620;28;20206;-57
2022/04/14 05:41:27;;;;;;;4.17;3.20;;;;;;;11.68;84.29;96763.53;5071497;28;20198;-56
2022/04/14 05:43:53;;;;;;;5.50;3.20;;;;;;;11.76;84.16;96766.31;5075021;28;20233;-57
2022/04/14 05:46:20;;;;;;;4.13;3.03;;;;;;;11.94;84.33;96765.34;5071881;28;20206;-57
2022/04/14 05:48:48;;;;;;;6.33;3.10;;;;;;;12.21;83.05;96769.81;5071610;28;20212;-58
2022/04/14 05:51:17;;;;;;;5.57;3.33;;;;;;;12.38;82.17;96768.13;5071798;28;20583;-56
2022/04/14 05:53:43;;;;;;;6.93;3.20;;;;;;;12.72;81.38;96774.41;5071447;28;20537;-58
2022/04/14 05:56:13;;;;;;;7.53;2.70;;;;;;;13.29;78.34;96769.56;5071844;28;20232;-55
2022/04/14 05:58:41;;;;;;;3.90;2.93;;;;;;;14.11;76.98;96767.13;5071811;28;20198;-55
2022/04/14 06:01:09;;;;;;;7.07;3.20;;;;;;;14.80;72.35;96768.59;5071863;28;20210;-56
2022/04/14 06:03:35;;;;;;;6.63;3.10;;;;;;;15.97;67.66;96768.91;5071366;28;20253;-57
2022/04/14 06:06:01;;;;;;;4.37;2.90;;;;;;;16.24;66.31;96776.44;5071574;28;20214;-57
2022/04/14 06:08:28;;;;;;;8.30;3.30;;;;;;;16.91;64.14;96773.03;5070776;28;20545;-59
2022/04/14 06:10:57;;;;;;;6.27;3.50;;;;;;;17.54;61.04;96778.94;5070901;28;20218;-57
2022/04/14 06:13:23;;;;;;;7.35;3.78;;;;;;;18.12;58.60;96767.44;5070893;28;20194;-57
2022/04/14 06:15:51;;;;;;;7.85;4.13;;;;;;;18.24;56.63;96774.00;5075239;28;20619;-58
2022/04/14 06:18:18;;;;;;;6.82;4.10;;;;;;;18.45;55.25;96771.38;5078702;28;20199;-57
2022/04/14 06:20:47;;;;;;;6.22;3.58;;;;;;;18.61;56.26;96775.69;5078559;28;20709;-56
2022/04/14 06:23:16;;;;;;;7.18;3.88;;;;;;;19.09;55.03;96779.47;5071260;28;20325;-56
2022/04/14 06:25:45;;;;;;;5.93;4.05;;;;;;;18.61;54.44;96771.16;5071695;28;20210;-57
2022/04/14 06:28:11;;;;;;;10.25;4.40;;;;;;;18.57;56.25;96764.50;5071844;28;20234;-57
2022/04/14 06:30:38;;;;;;;7.93;4.20;;;;;;;18.79;56.67;96774.22;5071111;28;20590;-57
2022/04/14 06:33:06;;;;;;;8.63;4.13;;;;;;;19.27;54.28;96769.13;5071232;28;20260;-57
2022/04/14 06:35:33;;;;;;;7.32;3.88;;;;;;;18.98;53.03;96777.31;5071701;28;20237;-57
2022/04/14 06:38:00;;;;;;;5.25;4.43;;;;;;;19.24;54.53;96774.84;5071797;28;20206;-57
2022/04/14 06:40:27;;;;;;;6.00;4.20;;;;;;;19.16;52.24;96775.00;5071569;28;20218;-58
2022/04/14 06:42:54;;;;;;;11.02;4.75;;;;;;;19.42;53.99;96769.84;5071980;28;20226;-57
2022/04/14 06:45:21;;;;;;;7.90;4.40;;;;;;;19.99;51.41;96774.16;5072013;28;20211;-57
2022/04/14 06:47:49;;;;;;;6.22;4.25;;;;;;;20.06;51.59;96780.38;5071809;28;20202;-57
2022/04/14 06:50:16;;;;;;;5.45;4.20;;;;;;;19.76;51.10;96772.59;5071666;28;20217;-57
2022/04/14 06:52:43;;;;;;;8.40;4.20;;;;;;;20.03;49.90;96776.25;5071934;28;20653;-56
2022/04/14 06:55:10;;;;;;;7.72;4.15;;;;;;;20.12;50.71;96782.28;5070915;28;20206;-57
2022/04/14 06:57:36;;;;;;;6.07;3.58;;;;;;;19.45;51.26;96776.72;5070945;28;20209;-57
2022/04/14 07:00:05;;;;;;;6.07;3.92;;;;;;;19.69;52.18;96774.41;5065483;28;20202;-58
2022/04/14 07:02:32;;;;;;;7.90;3.80;;;;;;;20.11;50.93;96791.38;5075120;28;20230;-57
2022/04/14 07:04:59;;;;;;;5.88;3.65;;;;;;;20.30;49.53;96785.28;5075481;28;20198;-55
2022/04/14 07:07:27;;;;;;;8.60;3.58;;;;;;;20.27;50.58;96785.66;5075759;28;20230;-57
2022/04/14 07:09:54;;;;;;;10.13;3.50;;;;;;;20.32;51.47;96793.97;5076463;28;20203;-56
2022/04/14 07:12:24;;;;;;;10.57;4.50;;;;;;;20.27;50.38;96785.66;5077711;28;20202;-57
2022/04/14 07:14:51;;;;;;;10.65;4.15;;;;;;;20.23;48.98;96784.38;5100227;28;20225;-57
2022/04/14 07:17:20;;;;;;;10.35;3.85;;;;;;;20.78;47.77;96789.59;5099036;28;20186;-58
2022/04/14 07:19:47;;;;;;;9.13;4.50;;;;;;;20.38;49.47;96787.78;5090279;28;20210;-56
2022/04/14 07:22:17;;;;;;;5.90;3.63;;;;;;;20.36;50.14;96795.25;5074538;28;20222;-57
2022/04/14 07:24:44;;;;;;;8.48;4.10;;;;;;;20.51;50.23;96793.22;5074758;28;20202;-59
2022/04/14 07:27:13;;;;;;;6.57;3.97;;;;;;;20.92;49.18;96795.81;5074220;28;20553;-57
2022/04/14 07:29:39;;;;;;;6.53;3.97;;;;;;;21.07;48.42;96799.16;5073826;28;20206;-57
2022/04/14 07:32:07;;;;;;;9.73;4.43;;;;;;;21.24;49.53;96796.94;5073542;28;20519;-57
2022/04/14 07:34:33;;;;;;;7.47;4.57;;;;;;;21.31;48.04;96803.16;5074012;28;20208;-57
2022/04/14 07:36:59;;;;;;;7.80;5.00;;;;;;;21.21;47.71;96802.72;5074244;28;20205;-57
2022/04/14 07:39:26;;;;;;;7.07;4.65;;;;;;;21.25;48.71;96806.66;5074262;28;20218;-57
2022/04/14 07:41:55;;;;;;;10.25;4.80;;;;;;;21.34;49.78;96808.09;5073918;28;20214;-57
2022/04/14 07:44:22;;;;;;;7.25;5.07;;;;;;;21.44;47.57;96805.00;5073651;28;20248;-57
2022/04/14 07:46:50;;;;;;;4.93;4.20;;;;;;;21.29;47.75;96807.91;5073634;28;20202;-57
2022/04/14 07:49:17;;;;;;;6.43;4.13;;;;;;;21.25;46.57;96812.03;5073795;28;20234;-57
2022/04/14 07:51:45;;;;;;;6.00;3.80;;;;;;;20.80;48.61;96808.19;5074192;28;20368;-57
2022/04/14 07:54:12;;;;;;;10.05;4.15;;;;;;;20.56;48.64;96806.03;5073047;28;20205;-56
2022/04/14 07:56:39;;;;;;;5.95;3.88;;;;;;;20.39;49.06;96810.13;5063886;28;20644;-57
2022/04/14 07:59:07;;;;;;;5.57;3.08;;;;;;;20.53;47.82;96806.47;5073523;28;20210;-57
2022/04/14 08:01:34;;;;;;;6.15;3.15;;;;;;;20.51;49.29;96809.31;5073358;28;21342;-57
2022/04/14 08:04:00;;;;;;;4.63;3.17;;;;;;;20.64;45.90;96806.72;5073590;28;20226;-59
2022/04/14 08:06:27;;;;;;;5.20;2.90;;;;;;;20.66;48.26;96814.56;5073706;28;20218;-57
2022/04/14 08:08:54;;;;;;;6.50;3.08;;;;;;;20.70;48.63;96811.28;5073424;28;21503;-57
2022/04/14 08:11:20;;;;;;;6.40;2.70;;;;;;;21.00;47.47;96817.16;5072561;28;20552;-57
2022/04/14 08:13:49;;;;;;;6.30;2.85;;;;;;;21.16;45.58;96818.63;5073642;28;20198;-57
2022/04/14 08:16:16;;;;;;;8.82;2.67;;;;;;;21.27;44.41;96821.56;5073916;28;20198;-55
2022/04/14 08:18:43;;;;;;;5.22;2.90;;;;;;;21.30;45.33;96823.00;5073384;28;20199;-58
2022/04/14 08:21:09;;;;;;;5.85;2.90;;;;;;;21.20;44.88;96819.88;5073183;28;20214;-57
2022/04/14 08:23:39;;;;;;;5.25;2.97;;;;;;;21.23;45.52;96827.53;5073016;28;20238;-57
2022/04/14 08:26:07;;;;;;;5.40;2.88;;;;;;;21.24;47.05;96823.84;5073052;28;20682;-58
2022/04/14 08:28:34;;;;;;;7.30;3.13;;;;;;;21.63;46.17;96821.16;5073237;28;20560;-57
2022/04/14 08:31:02;;;;;;;5.78;2.95;;;;;;;21.69;43.77;96820.31;5072761;28;20230;-58
2022/04/14 08:33:31;;;;;;;3.88;2.45;;;;;;;21.72;43.22;96819.06;5073168;28;20198;-57
2022/04/14 08:35:58;;;;;;;3.80;2.50;;;;;;;21.58;44.92;96818.25;5077283;28;20214;-55
2022/04/14 08:38:25;;;;;;;5.47;2.35;;;;;;;21.97;44.72;96821.97;5090042;28;20206;-56
2022/04/14 08:40:58;;;;;;;7.30;2.72;;;;;;;21.97;42.09;96832.75;5092085;28;20244;-58
2022/04/14 08:43:32;;;;;;;8.18;3.10;;;;;;;21.79;43.61;96826.09;5093448;28;20209;-58
2022/04/14 08:46:02;;;;;;;5.00;2.67;;;;;;;21.86;42.73;96827.97;5077878;28;20202;-54
2022/04/14 08:48:30;;;;;;;4.72;2.53;;;;;;;21.71;42.99;96822.81;5072862;28;20194;-55
2022/04/14 08:50:58;;;;;;;5.47;2.67;;;;;;;21.68;43.29;96824.03;5072540;28;20844;-56
2022/04/14 08:53:26;;;;;;;7.13;2.63;;;;;;;21.76;44.06;96828.38;5072787;28;20294;-56
2022/04/14 08:55:52;;;;;;;5.90;2.75;;;;;;;21.93;45.65;96820.75;5072631;28;20210;-57
2022/04/14 08:58:25;;;;;;;5.80;2.72;;;;;;;22.18;43.09;96822.53;5073149;28;20210;-57
2022/04/14 09:00:54;;;;;;;6.18;2.63;;;;;;;22.22;43.77;96823.78;5073292;28;20272;-57
2022/04/14 09:03:20;;;;;;;5.28;2.90;;;;;;;22.36;43.90;96815.66;5073494;28;20219;-58
2022/04/14 09:05:51;;;;;;;7.53;3.22;;;;;;;22.59;42.76;96816.00;5073466;28;20239;-57
2022/04/14 09:08:17;;;;;;;6.97;2.80;;;;;;;22.95;42.48;96818.13;5073436;28;20226;-57
2022/04/14 09:10:43;;;;;;;5.68;2.95;;;;;;;23.34;42.59;96812.50;5072783;28;20222;-58
2022/04/14 09:13:12;;;;;;;5.43;2.90;;;;;;;23.82;41.92;96809.19;5073366;28;20202;-58
2022/04/14 09:15:38;;;;;;;7.70;2.80;;;;;;;23.98;42.11;96806.78;5072906;28;20210;-60
2022/04/14 09:18:09;;;;;;;5.78;2.80;;;;;;;24.38;39.67;96799.06;5073828;28;20199;-58
2022/04/14 09:20:37;;;;;;;5.82;2.58;;;;;;;24.62;38.38;96800.06;5072700;28;20205;-59
2022/04/14 09:23:18;;;;;;;8.10;3.42;;;;;;;24.75;40.21;96803.41;5071249;28;20258;-59
2022/04/14 09:25:45;;;;;;;5.60;3.25;;;;;;;24.17;40.06;96804.94;5072397;28;20187;-60
2022/04/14 09:28:12;;;;;;;9.35;3.65;;;;;;;24.12;40.41;96802.88;5072188;28;20206;-59
2022/04/14 09:30:39;;;;;;;9.70;3.45;;;;;;;24.15;41.56;96802.47;5071455;28;20662;-60
2022/04/14 09:33:06;;;;;;;8.50;3.22;;;;;;;24.65;40.15;96797.72;5071529;28;20631;-58
2022/04/14 09:35:32;;;;;;;7.32;3.35;;;;;;;24.26;39.38;96785.50;5071676;28;20217;-58
2022/04/14 09:38:03;;;;;;;4.28;3.15;;;;;;;24.40;40.90;96793.44;5071197;28;20212;-58
2022/04/14 09:40:34;;;;;;;8.45;3.63;;;;;;;24.43;40.89;96791.13;5072155;28;20233;-57
2022/04/14 09:43:02;;;;;;;9.45;3.60;;;;;;;24.41;40.21;96790.50;5071859;28;20210;-58
2022/04/14 09:45:32;;;;;;;9.95;3.30;;;;;;;24.69;41.06;96796.19;5072597;28;20217;-59
2022/04/14 09:48:03;;;;;;;5.78;3.10;;;;;;;24.86;40.98;96787.50;5073786;28;20195;-58
2022/04/14 09:50:32;;;;;;;5.75;3.42;;;;;;;24.58;39.91;96788.03;5075833;28;20210;-56
2022/04/14 09:53:00;;;;;;;5.55;3.80;;;;;;;24.37;40.56;96794.75;5077457;28;20202;-57
2022/04/14 09:55:27;;;;;;;7.68;3.75;;;;;;;24.04;41.65;96789.66;5078273;28;20199;-55
2022/04/14 09:58:10;;;;;;;7.70;3.70;;;;;;;24.00;41.44;96779.50;5075444;28;20199;-56
2022/04/14 10:00:40;;;;;;;5.70;3.72;;;;;;;24.37;42.29;96783.09;5074096;28;20615;-55
2022/04/14 10:03:16;;;;;;;10.35;3.90;;;;;;;24.15;40.66;96780.00;5063798;28;20221;-57
2022/04/14 10:05:43;;;;;;;6.78;4.25;;;;;;;24.62;40.83;96776.50;5072180;28;20204;-56
2022/04/14 10:08:10;;;;;;;8.57;3.50;;;;;;;24.62;42.58;96775.72;5071562;28;20206;-57
2022/04/14 10:10:39;;;;;;;6.55;3.38;;;;;;;24.62;40.13;96768.41;5066152;28;20234;-57
2022/04/14 10:13:08;;;;;;;5.25;3.45;;;;;;;24.66;40.40;96768.78;5076626;28;20194;-57
2022/04/14 10:15:36;;;;;;;7.50;3.47;;;;;;;24.64;40.88;96768.19;5073849;28;20213;-56
2022/04/14 10:18:06;;;;;;;8.38;3.40;;;;;;;24.76;40.90;96761.75;5071542;28;20206;-56
2022/04/14 10:20:36;;;;;;;5.80;3.20;;;;;;;24.90;41.12;96764.34;5071457;28;20202;-57
2022/04/14 10:23:03;;;;;;;8.48;3.60;;;;;;;24.95;39.91;96759.88;5070184;28;20802;-56
2022/04/14 10:25:30;;;;;;;7.68;3.63;;;;;;;25.00;40.62;96761.91;5071303;28;20198;-56
2022/04/14 10:27:57;;;;;;;7.25;3.92;;;;;;;25.14;39.92;96768.75;5071570;28;20277;-57
2022/04/14 10:30:26;;;;;;;8.60;3.35;;;;;;;25.07;39.83;96768.03;5071014;28;20198;-56
2022/04/14 10:32:55;;;;;;;5.63;3.63;;;;;;;24.83;40.16;96763.56;5071676;28;20211;-57
2022/04/14 10:35:22;;;;;;;8.27;4.03;;;;;;;25.07;40.63;96757.22;5062973;28;20210;-57
2022/04/14 10:37:52;;;;;;;7.60;3.47;;;;;;;24.90;39.08;96751.63;5070932;28;20242;-56
2022/04/14 10:40:18;;;;;;;9.55;4.13;;;;;;;25.12;40.25;96757.31;5071003;28;20191;-56
2022/04/14 10:42:48;;;;;;;6.38;3.30;;;;;;;25.42;39.03;96749.97;5071351;28;20194;-57
2022/04/14 10:45:17;;;;;;;6.22;3.00;;;;;;;25.58;38.85;96760.13;5072398;28;20218;-56
2022/04/14 10:47:59;;;;;;;5.60;3.10;;;;;;;25.15;37.92;96748.75;5073273;28;20201;-56
2022/04/14 10:50:27;;;;;;;8.57;3.75;;;;;;;24.75;39.75;96748.47;5074722;28;20206;-56
2022/04/14 10:53:05;;;;;;;5.90;3.40;;;;;;;24.97;38.29;96741.53;5084472;28;20190;-57
2022/04/14 10:55:41;;;;;;;8.63;3.65;;;;;;;25.21;40.35;96754.06;5096656;28;20191;-56
2022/04/14 10:58:30;;;;;;;5.00;2.85;;;;;;;25.84;39.27;96744.47;5093377;28;20236;-57
2022/04/14 11:00:57;;;;;;;7.53;2.97;;;;;;;25.73;36.53;96740.72;5093416;28;20206;-57
2022/04/14 11:03:45;;;;;;;8.40;3.25;;;;;;;25.48;35.93;96743.63;5082862;28;20219;-56
2022/04/14 11:07:01;;;;;;;7.72;3.40;;;;;;;25.67;35.72;96741.66;5079990;28;20205;-56
2022/04/14 11:09:55;;;;;;;7.70;3.58;;;;;;;25.56;36.20;96742.50;5042087;28;20244;-56
2022/04/14 11:12:23;;;;;;;10.75;3.80;;;;;;;25.52;37.50;96744.00;5070563;28;20205;-56
2022/04/14 11:14:52;;;;;;;7.88;3.42;;;;;;;25.56;36.79;96737.91;5070800;28;20229;-56
2022/04/14 11:18:00;;;;;;;4.75;3.17;;;;;;;26.08;37.33;96735.25;5070743;28;20207;-56
2022/04/14 11:20:56;;;;;;;8.02;3.58;;;;;;;25.69;36.21;96740.38;5066816;28;20207;-55
2022/04/14 11:23:26;;;;;;;4.38;3.10;;;;;;;26.08;37.69;96733.38;5070445;28;20705;-55
2022/04/14 11:25:54;;;;;;;6.95;3.83;;;;;;;26.14;35.85;96737.88;5070673;28;20623;-56
2022/04/14 11:28:24;;;;;;;6.80;4.07;;;;;;;25.94;35.43;96732.00;5062252;28;20210;-55
2022/04/14 11:30:53;;;;;;;8.63;3.65;;;;;;;25.78;35.27;96731.88;5072281;28;20203;-58
2022/04/14 11:33:25;;;;;;;6.13;3.38;;;;;;;25.51;34.27;96726.09;5072059;28;20207;-55
2022/04/14 11:35:51;;;;;;;7.93;4.20;;;;;;;25.00;35.53;96722.13;5071865;28;20198;-56
2022/04/14 11:38:50;;;;;;;8.30;3.95;;;;;;;25.60;35.84;96722.84;5070990;28;20206;-55
2022/04/14 11:41:35;;;;;;;8.82;4.25;;;;;;;25.61;36.34;96720.94;5072105;28;20230;-54